createdAt,value
2022-11-19T10:17:32.459Z,965.00
2022-11-19T10:18:32.467Z,965.02
2022-11-19T10:19:32.577Z,964.99
2022-11-19T10:20:32.547Z,964.99
2022-11-19T10:21:32.650Z,965.00
2022-11-19T10:22:33.618Z,964.99
2022-11-19T10:23:32.722Z,965.02
2022-11-19T10:24:32.747Z,964.97
2022-11-19T10:25:32.793Z,964.98
2022-11-19T10:26:32.900Z,964.99
2022-11-19T10:27:32.900Z,965.01
2022-11-19T10:28:32.955Z,965.00
2022-11-19T10:29:32.997Z,964.97
2022-11-19T10:30:33.037Z,965.00
2022-11-19T10:31:33.137Z,964.97
2022-11-19T10:32:33.174Z,964.86
2022-11-19T10:33:33.202Z,964.87
2022-11-19T10:34:33.254Z,964.82
2022-11-19T10:35:33.292Z,964.80
2022-11-19T10:36:33.352Z,964.77
2022-11-19T10:37:33.498Z,964.75
2022-11-19T10:38:33.453Z,964.74
2022-11-19T10:39:33.533Z,964.70
2022-11-19T10:40:33.603Z,964.70
2022-11-19T10:41:33.646Z,964.69
2022-11-19T10:42:33.656Z,964.75
2022-11-19T10:43:33.701Z,964.71
2022-11-19T10:44:33.748Z,964.68
2022-11-19T10:45:33.797Z,964.66
2022-11-19T10:46:33.877Z,964.69
2022-11-19T10:47:33.901Z,964.67
2022-11-19T10:48:33.955Z,964.63
2022-11-19T10:49:34.035Z,964.62
2022-11-19T10:50:34.133Z,964.61
2022-11-19T10:51:34.098Z,964.61
2022-11-19T10:52:39.994Z,964.60
2022-11-19T10:53:34.196Z,964.55
2022-11-19T10:54:34.251Z,964.60
2022-11-19T10:55:34.365Z,964.61
2022-11-19T10:56:34.692Z,964.62
2022-11-19T10:57:36.123Z,964.59
2022-11-19T10:58:35.152Z,964.56
2022-11-19T10:59:34.588Z,964.57
2022-11-19T11:00:35.179Z,964.55
2022-11-19T11:01:34.679Z,964.53
2022-11-19T11:02:34.657Z,964.52
2022-11-19T11:03:34.704Z,964.54
2022-11-19T11:04:34.723Z,964.49
2022-11-19T11:05:34.789Z,964.51
2022-11-19T11:06:34.986Z,964.46
2022-11-19T11:07:34.942Z,964.48
2022-11-19T11:08:41.670Z,964.48
2022-11-19T11:09:34.974Z,964.42
2022-11-19T11:10:35.013Z,964.43
2022-11-19T11:11:35.776Z,964.48
2022-11-19T11:12:35.253Z,964.44
2022-11-19T11:13:38.213Z,964.44
2022-11-19T11:14:35.236Z,964.44
2022-11-19T11:15:35.293Z,964.46
2022-11-19T11:16:37.880Z,964.46
2022-11-19T11:17:35.490Z,964.46
2022-11-19T11:18:40.165Z,964.43
2022-11-19T11:19:40.171Z,964.45
2022-11-19T11:20:35.564Z,964.44
2022-11-19T11:21:35.595Z,964.43
2022-11-19T11:22:35.588Z,964.43
2022-11-19T11:23:35.640Z,964.41
2022-11-19T11:24:35.714Z,964.41
2022-11-19T11:25:35.754Z,964.37
2022-11-19T11:26:35.846Z,964.34
2022-11-19T11:27:35.842Z,964.36
2022-11-19T11:28:36.650Z,964.38
2022-11-19T11:29:35.946Z,964.39
2022-11-19T11:30:36.033Z,964.36
2022-11-19T11:31:36.686Z,964.43
2022-11-19T11:32:36.092Z,964.40
2022-11-19T11:33:36.188Z,964.38
2022-11-19T11:34:36.181Z,964.40
2022-11-19T11:35:36.250Z,964.39
2022-11-19T11:36:36.271Z,964.40
2022-11-19T11:37:36.341Z,964.34
2022-11-19T11:38:36.389Z,964.33
2022-11-19T11:39:36.749Z,964.33
